UKBBLCLK

Guest
Details From UKBB - Boryspil
To LCLK - Larnaca
Flight Number -
Tags Generated
Created
Modified
Stats Distance 938 nm / 1,738 km
Max Altitude 0 ft / 0 m
Waypoints 4
Social Downloads 0
Likes 0
Share VATSIM

Download

Looking for another format? Having issues loading an existing format? Contact us
Advertisement - Login to hide

Notes

Generated

Route

UKBB BANID LCA41 LCLK

ID Type Via Altitude Latitude Longitude Leg Dist Tot Dist Heading (true) Name
O UKBB APT - 0 ft / 0 m 50.36056˚ 30.90660˚ - 0 nm - -
BANID FIX - 0 ft / 0 m 46.55500˚ 31.53947˚ 229 nm 229 nm 173° / 174° -
LCA41 FIX - 0 ft / 0 m 34.86930˚ 33.61470˚ 708 nm 938 nm 172° / 173° -
O LCLK APT - 0 ft / 0 m 34.86568˚ 33.61326˚ 0 nm 938 nm 198° / 198° -

Altitude Profile

Advertisement - Login to hide

Weather


0- 5 10 15 20 25 30 35+ Temperature / ° C

Clouds and Precipitation
Forecast for 2017-12-13 00:00 UTC. Updated an hour ago

Ground ~20,000 ft ~40,000 ft Winds

UKBB

Details ICAO UKBB (KBP)
Name Boryspil
Region Ukraine
Timezone Europe/Kiev (UTC+2.0)
Stats Elevation 421 ft / 128 m (AMSL)
Location 50.339472° 30.892903°
Runways 2
Magnetic Variation 7.668° E

METAR

UKBB 122000Z 21002MPS CAVOK 02/00 Q1012 R18L/190060 NOSIG

Decode

TAF

TAF TAF UKBB 121101Z 1212/1312 19005MPS 9999 BKN015 TEMPO 1212/1220 22006G11MPS 3000 -SHRA BR BKN004 SCT020CB TEMPO 1220/1307 23003MPS 1000 -DZ BR OVC002 BECMG 1308/1309 34004G09MPS TX04/1212Z TN00/1306Z

Decode

Departure Runways

ID Width Length Bearing (true) Bearing (mag) Surface Threshold Offset Overrun Length
18L 197 ft / 60 m 13,152 ft / 4,009 m 182.72° 175.05° Concrete 0 ft / 0 m 295 ft / 90 m
18R 207 ft / 63 m 11,470 ft / 3,496 m 182.62° 174.95° Concrete 0 ft / 0 m 164 ft / 50 m
36L 207 ft / 63 m 11,470 ft / 3,496 m 2.62° 354.95° Concrete 0 ft / 0 m 164 ft / 50 m
36R 197 ft / 60 m 13,152 ft / 4,009 m 2.72° 355.05° Concrete 0 ft / 0 m 295 ft / 90 m

LCLK

Details ICAO LCLK (LCA)
Name Larnaca
Region Cyprus
Timezone Asia/Nicosia (UTC+2.0)
Stats Elevation 8 ft / 2 m (AMSL)
Location 34.875115° 33.624832°
Runways 1
Magnetic Variation 4.990° E

METAR

LCLK 122000Z 32006KT CAVOK 15/09 Q1019 NOSIG

Decode

TAF

TAF LCLK 121730Z 1218/1318 33009KT 9999 FEW030= TAF LCPH 121730Z 1218/1318 02007KT 9999 FEW030 BECMG 1308/1311 32015KT BECMG 1316/1318 02007KT

Decode

Destination Runways

ID Width Length Bearing (true) Bearing (mag) Surface Threshold Offset Overrun Length
04 148 ft / 45 m 9,771 ft / 2,978 m 45.15° 40.16° Asphalt 0 ft / 0 m 210 ft / 64 m
22 148 ft / 45 m 9,771 ft / 2,978 m 225.17° 220.18° Asphalt 575 ft / 175 m 0 ft / 0 m

Approach Navaids

Runway Type Ident Frequency Range Bearing (true) Bearing (mag) Slope Elevation
22 Localiser ILC 110.30 MHz 18 nm / 33 km 225.17° 220.18° - 8 ft / 2 m (AMSL)
22 Glidescope ILC 110.30 MHz 10 nm / 19 km 225.16° 220.17° 2.75° 24 ft / 7 m (AMSL)
22 DME ILC 110.30 MHz 18 nm / 33 km - - - 20 ft / 6 m (AMSL)

Popular Alternatives